createdAt,value
2022-09-04T00:04:18.515Z,101361.28
2022-09-04T00:09:32.871Z,101356.09
2022-09-04T00:14:38.077Z,101363.91
2022-09-04T00:20:02.877Z,101356.81
2022-09-04T00:25:08.289Z,101374.72
2022-09-04T00:30:12.535Z,101367.66
2022-09-04T00:35:19.435Z,101363.84
2022-09-04T00:40:31.500Z,101373.50
2022-09-04T00:45:36.661Z,101377.03
2022-09-04T00:50:45.386Z,101379.59
2022-09-04T00:55:57.159Z,101377.81
2022-09-04T01:01:00.169Z,101377.22
2022-09-04T01:06:33.949Z,101373.94
2022-09-04T01:11:46.452Z,101381.03
2022-09-04T01:17:09.462Z,101382.22
2022-09-04T01:22:41.495Z,101380.56
2022-09-04T01:27:59.061Z,101380.81
2022-09-04T01:33:17.311Z,101364.91
2022-09-04T01:38:41.277Z,101381.69
2022-09-04T01:43:44.339Z,101377.59
2022-09-04T01:49:27.850Z,101371.31
2022-09-04T01:54:51.266Z,101373.63
2022-09-04T01:59:59.403Z,101377.97
2022-09-04T02:05:32.991Z,101351.31
2022-09-04T02:10:38.496Z,101369.38
2022-09-04T02:15:42.991Z,101367.13
2022-09-04T02:20:51.430Z,101357.56
2022-09-04T02:26:01.373Z,101363.59
2022-09-04T02:31:24.740Z,101355.19
2022-09-04T02:36:36.602Z,101359.25
2022-09-04T02:41:51.205Z,101366.69
2022-09-04T02:47:16.616Z,101361.94
2022-09-04T02:52:37.224Z,101368.59
2022-09-04T02:57:55.275Z,101359.09
2022-09-04T03:03:11.295Z,101353.16
2022-09-04T03:08:22.780Z,101351.81
2022-09-04T03:13:52.044Z,101338.47
2022-09-04T03:19:16.516Z,101344.63
2022-09-04T03:24:56.771Z,101344.63
2022-09-04T03:30:09.072Z,101343.19
2022-09-04T03:35:23.534Z,101357.25
2022-09-04T03:41:00.704Z,101367.34
2022-09-04T03:46:33.745Z,101359.16
2022-09-04T03:51:57.184Z,101372.78
2022-09-04T03:57:03.260Z,101367.81
2022-09-04T04:02:08.217Z,101373.28
2022-09-04T04:07:25.248Z,101381.28
2022-09-04T04:13:01.020Z,101380.75
2022-09-04T04:18:21.868Z,101383.09
2022-09-04T04:23:29.467Z,101391.00
2022-09-04T04:28:45.310Z,101392.66
2022-09-04T04:34:14.015Z,101393.72
2022-09-04T04:39:30.464Z,101396.00
2022-09-04T04:45:17.464Z,101406.53
2022-09-04T04:50:29.840Z,101420.56
2022-09-04T04:55:56.711Z,101428.09
2022-09-04T05:01:23.069Z,101430.88
2022-09-04T05:06:42.231Z,101431.16
2022-09-04T05:12:11.261Z,101423.03
2022-09-04T05:17:25.538Z,101436.06
2022-09-04T05:23:03.242Z,101429.34
2022-09-04T05:28:21.858Z,101431.78
2022-09-04T05:33:47.225Z,101443.28
2022-09-04T05:39:26.272Z,101450.34
2022-09-04T05:44:37.162Z,101454.19
2022-09-04T05:50:00.853Z,101460.16
2022-09-04T05:55:11.996Z,101461.66
2022-09-04T06:00:17.751Z,101468.22
2022-09-04T06:05:35.205Z,101470.84
2022-09-04T06:10:47.476Z,101474.69
2022-09-04T06:16:18.657Z,101483.31
2022-09-04T06:21:23.954Z,101481.97
2022-09-04T06:27:04.681Z,101471.72
2022-09-04T06:32:29.095Z,101477.84
2022-09-04T06:37:48.178Z,101486.09
2022-09-04T06:43:09.186Z,101489.16
2022-09-04T06:48:17.352Z,101495.44
2022-09-04T06:53:37.994Z,101485.66
2022-09-04T06:59:11.456Z,101491.50
2022-09-04T07:04:35.604Z,101491.22
2022-09-04T07:09:42.725Z,101497.41
2022-09-04T07:15:06.999Z,101499.34
2022-09-04T07:20:31.145Z,101509.16
2022-09-04T07:25:41.848Z,101512.69
2022-09-04T07:30:50.886Z,101506.09
2022-09-04T07:36:03.316Z,101504.13
2022-09-04T07:41:17.875Z,101524.22
2022-09-04T07:46:47.560Z,101521.25
2022-09-04T07:52:03.558Z,101509.16
2022-09-04T07:57:18.400Z,101532.75
2022-09-04T08:02:51.312Z,101525.47
2022-09-04T08:08:15.154Z,101547.94
2022-09-04T08:13:25.194Z,101541.75
2022-09-04T08:18:53.253Z,101544.53
2022-09-04T08:24:14.267Z,101547.38
2022-09-04T08:29:16.711Z,101554.53
2022-09-04T08:34:37.992Z,101545.09
2022-09-04T08:40:01.532Z,101553.72
2022-09-04T08:45:43.433Z,101564.78
2022-09-04T08:51:05.210Z,101566.16
2022-09-04T08:56:20.673Z,101568.03
2022-09-04T09:01:41.867Z,101571.22
2022-09-04T09:06:56.173Z,101572.09
2022-09-04T09:12:10.636Z,101578.88
2022-09-04T09:17:18.838Z,101575.41
2022-09-04T09:22:59.555Z,101579.00
2022-09-04T09:28:20.357Z,101587.69
2022-09-04T09:34:11.526Z,101573.28
2022-09-04T09:39:34.351Z,101569.28
2022-09-04T09:45:14.242Z,101579.41
2022-09-04T09:51:02.821Z,101569.19
2022-09-04T09:56:35.981Z,101578.28
2022-09-04T10:01:52.419Z,101582.59
2022-09-04T10:07:20.227Z,101575.53
2022-09-04T10:12:46.788Z,101581.47
2022-09-04T10:18:08.762Z,101572.13
2022-09-04T10:23:20.315Z,101584.09
2022-09-04T10:28:30.777Z,101579.28
2022-09-04T10:34:12.923Z,101568.06
2022-09-04T10:39:44.098Z,101563.41
2022-09-04T10:44:58.820Z,101570.50
2022-09-04T10:50:11.725Z,101566.59
2022-09-04T10:55:19.994Z,101570.66
2022-09-04T11:00:40.744Z,101559.91
2022-09-04T11:06:25.983Z,101567.78
2022-09-04T11:11:59.895Z,101567.31
2022-09-04T11:17:05.111Z,101569.56
2022-09-04T11:22:45.320Z,101561.44
2022-09-04T11:28:21.549Z,101559.34
2022-09-04T11:33:50.575Z,101561.75
2022-09-04T11:39:21.115Z,101559.50
2022-09-04T11:44:45.517Z,101555.63
2022-09-04T11:50:09.784Z,101562.75
2022-09-04T11:55:25.432Z,101558.22
2022-09-04T12:00:59.542Z,101549.06
2022-09-04T12:06:35.246Z,101553.66
2022-09-04T12:12:11.649Z,101554.47
2022-09-04T12:17:15.742Z,101558.53
2022-09-04T12:22:52.509Z,101562.31
2022-09-04T12:28:27.254Z,101557.44
2022-09-04T12:33:45.776Z,101548.13
2022-09-04T12:39:18.888Z,101546.81
2022-09-04T12:44:43.279Z,101559.50
2022-09-04T12:50:33.958Z,101553.50
2022-09-04T12:56:03.338Z,101558.53
2022-09-04T13:01:17.271Z,101561.31
2022-09-04T13:06:40.430Z,101546.13
2022-09-04T13:12:07.571Z,101559.81
2022-09-04T13:17:10.085Z,101560.50
2022-09-04T13:22:24.612Z,101570.47
2022-09-04T13:28:04.263Z,101571.91
2022-09-04T13:33:40.963Z,101576.00
2022-09-04T13:38:46.092Z,101577.31
2022-09-04T13:44:26.014Z,101566.88
2022-09-04T13:49:33.784Z,101564.94
2022-09-04T13:54:45.899Z,101564.09
2022-09-04T13:59:50.288Z,101559.31
2022-09-04T14:05:18.323Z,101535.53
2022-09-04T14:10:25.821Z,101566.06
2022-09-04T14:15:28.846Z,101556.00
2022-09-04T14:21:01.291Z,101550.50
2022-09-04T14:26:04.043Z,101559.97
2022-09-04T14:31:21.965Z,101557.84
2022-09-04T14:36:26.960Z,101559.03
2022-09-04T14:42:04.928Z,101564.22
2022-09-04T14:47:30.287Z,101561.00
2022-09-04T14:52:40.570Z,101567.19
2022-09-04T14:57:48.041Z,101566.72
2022-09-04T15:02:50.439Z,101566.38
2022-09-04T15:08:01.518Z,101572.25
2022-09-04T15:13:27.987Z,101575.69
2022-09-04T15:18:37.345Z,101578.94
2022-09-04T15:23:55.530Z,101575.69
2022-09-04T15:29:03.752Z,101570.44
2022-09-04T15:34:21.296Z,101568.75
2022-09-04T15:39:37.933Z,101580.53
2022-09-04T15:44:43.420Z,101585.06
2022-09-04T15:50:01.151Z,101589.50
2022-09-04T15:55:11.546Z,101593.72
2022-09-04T16:00:15.884Z,101595.06
2022-09-04T16:05:41.424Z,101602.06
2022-09-04T16:11:04.413Z,101594.91
2022-09-04T16:16:12.146Z,101602.63
2022-09-04T16:21:50.598Z,101595.63
2022-09-04T16:26:54.515Z,101602.84
2022-09-04T16:31:58.517Z,101603.91
2022-09-04T16:37:14.010Z,101604.69
2022-09-04T16:42:22.641Z,101615.63
2022-09-04T16:47:32.855Z,101615.44
2022-09-04T16:52:35.502Z,101618.81
2022-09-04T16:57:44.336Z,101617.56
2022-09-04T17:03:10.081Z,101615.28
2022-09-04T17:08:52.556Z,101625.94
2022-09-04T17:14:10.669Z,101627.09
2022-09-04T17:19:14.649Z,101630.53
2022-09-04T17:28:56.994Z,101636.00
2022-09-04T17:30:02.165Z,101642.34
2022-09-04T17:40:33.033Z,101653.06
2022-09-04T17:41:37.915Z,101666.59
2022-09-04T17:46:32.502Z,101677.09
2022-09-04T17:51:35.619Z,101682.94
2022-09-04T17:56:54.373Z,101690.88
2022-09-04T18:02:01.291Z,101674.72
2022-09-04T18:07:58.898Z,101689.91
2022-09-04T18:12:43.111Z,101688.34
2022-09-04T18:17:51.010Z,101714.19
2022-09-04T18:23:14.931Z,101718.59
2022-09-04T18:28:27.234Z,101725.25
2022-09-04T18:37:22.282Z,101725.25
2022-09-04T18:39:27.531Z,101736.25
2022-09-04T18:50:22.788Z,101741.47
2022-09-04T18:51:04.424Z,101737.06
2022-09-04T18:55:43.869Z,101745.59
2022-09-04T19:00:48.761Z,101751.59
2022-09-04T19:05:55.691Z,101758.50
2022-09-04T19:11:09.412Z,101751.59
2022-09-04T19:16:40.849Z,101757.88
2022-09-04T19:21:58.227Z,101764.75
2022-09-04T19:27:27.678Z,101759.78
2022-09-04T19:32:41.857Z,101772.91
2022-09-04T19:44:15.366Z,101764.91
2022-09-04T19:46:18.861Z,101794.25
2022-09-04T19:50:01.805Z,101787.34
2022-09-04T19:54:41.692Z,101782.41
2022-09-04T19:59:47.158Z,101788.13
2022-09-04T20:04:55.544Z,101788.31
2022-09-04T20:09:59.776Z,101788.53
2022-09-04T20:15:13.922Z,101802.84
2022-09-04T20:20:23.676Z,101796.22
2022-09-04T20:25:57.739Z,101801.38
2022-09-04T20:31:28.798Z,101803.56
2022-09-04T20:36:48.833Z,101814.97
2022-09-04T20:42:04.349Z,101822.81
2022-09-04T20:52:25.318Z,101824.63
2022-09-04T20:53:09.621Z,101826.25
2022-09-04T21:03:11.773Z,101837.09
2022-09-04T21:03:56.451Z,101841.97
2022-09-04T21:09:14.907Z,101853.66
2022-09-04T21:14:45.522Z,101849.44
2022-09-04T21:20:13.072Z,101857.28
2022-09-04T21:25:37.878Z,101854.94
2022-09-04T21:30:59.731Z,101858.53
2022-09-04T21:36:25.422Z,101861.16
2022-09-04T21:41:47.244Z,101863.63
2022-09-04T21:47:08.608Z,101869.47
2022-09-04T21:52:41.955Z,101874.34
2022-09-04T22:02:45.027Z,101873.72
2022-09-04T22:03:34.887Z,101877.91
2022-09-04T22:13:32.369Z,101877.03
2022-09-04T22:14:12.592Z,101875.88
2022-09-04T22:19:52.228Z,101884.78
2022-09-04T22:25:16.228Z,101882.09
2022-09-04T22:30:20.034Z,101879.88
2022-09-04T22:35:40.848Z,101890.00
2022-09-04T22:40:58.179Z,101888.56
2022-09-04T22:46:43.084Z,101885.09
2022-09-04T22:51:57.377Z,101895.84
2022-09-04T22:57:10.833Z,101878.25
2022-09-04T23:03:07.898Z,101889.84
2022-09-04T23:13:42.929Z,101896.75
2022-09-04T23:14:18.316Z,101895.13
2022-09-04T23:26:38.133Z,101901.63
2022-09-04T23:26:53.817Z,101896.25
2022-09-04T23:31:12.518Z,101907.25
2022-09-04T23:36:41.761Z,101906.34
2022-09-04T23:41:55.972Z,101911.03
2022-09-04T23:47:46.864Z,101911.78
2022-09-04T23:53:07.343Z,101910.13
2022-09-04T23:58:51.541Z,101903.72
